createdAt,value
2022-09-30T00:00:32.304Z,927.67
2022-09-30T00:01:32.525Z,927.66
2022-09-30T00:02:32.986Z,927.68
2022-09-30T00:03:33.870Z,927.71
2022-09-30T00:04:34.464Z,927.7
2022-09-30T00:05:35.405Z,927.69
2022-09-30T00:06:35.642Z,927.73
2022-09-30T00:07:35.845Z,927.69
2022-09-30T00:08:36.753Z,927.7
2022-09-30T00:09:37.022Z,927.68
2022-09-30T00:10:37.904Z,927.67
2022-09-30T00:11:38.412Z,927.68
2022-09-30T00:12:39.331Z,927.68
2022-09-30T00:13:40.270Z,927.68
2022-09-30T00:14:40.461Z,927.65
2022-09-30T00:15:41.109Z,927.68
2022-09-30T00:16:41.559Z,927.66
2022-09-30T00:17:42.361Z,927.7
2022-09-30T00:18:42.992Z,927.69
2022-09-30T00:19:43.330Z,927.65
2022-09-30T00:20:43.725Z,927.64
2022-09-30T00:21:44.394Z,927.66
2022-09-30T00:22:44.604Z,927.64
2022-09-30T00:23:45.101Z,927.62
2022-09-30T00:24:45.470Z,927.61
2022-09-30T00:25:46.384Z,927.55
2022-09-30T00:26:46.627Z,927.55
2022-09-30T00:27:47.516Z,927.54
2022-09-30T00:28:47.865Z,927.52
2022-09-30T00:29:48.784Z,927.47
2022-09-30T00:30:49.503Z,927.46
2022-09-30T00:31:49.914Z,927.48
2022-09-30T00:32:50.182Z,927.49
2022-09-30T00:33:51.094Z,927.5
2022-09-30T00:34:51.729Z,927.52
2022-09-30T00:35:52.044Z,927.55
2022-09-30T00:36:52.705Z,927.56
2022-09-30T00:37:53.629Z,927.59
2022-09-30T00:38:54.550Z,927.6
2022-09-30T00:39:55.219Z,927.67
2022-09-30T00:40:55.477Z,927.69
2022-09-30T00:41:56.410Z,927.67
2022-09-30T00:42:56.607Z,927.71
2022-09-30T00:43:56.905Z,927.71
2022-09-30T00:44:57.099Z,927.7
2022-09-30T00:45:58.013Z,927.74
2022-09-30T00:46:59.024Z,927.73
2022-09-30T00:47:59.214Z,927.69
2022-09-30T00:48:59.830Z,927.69
2022-09-30T00:50:00.445Z,927.62
2022-09-30T00:51:00.760Z,927.64
2022-09-30T00:52:00.978Z,927.6
2022-09-30T00:53:01.994Z,927.61
2022-09-30T00:54:02.914Z,927.62
2022-09-30T00:55:03.575Z,927.63
2022-09-30T00:56:03.911Z,927.61
2022-09-30T00:57:04.847Z,927.63
2022-09-30T00:58:05.466Z,927.62
2022-09-30T00:59:06.383Z,927.65
2022-09-30T01:00:07.274Z,927.64
2022-09-30T01:01:07.965Z,927.69
2022-09-30T01:02:08.173Z,927.64
2022-09-30T01:03:08.391Z,927.68
2022-09-30T01:04:09.310Z,927.67
2022-09-30T01:05:09.932Z,927.65
2022-09-30T01:06:10.846Z,927.63
2022-09-30T01:07:11.371Z,927.69
2022-09-30T01:08:11.600Z,927.72
2022-09-30T01:09:12.234Z,927.73
2022-09-30T01:10:12.583Z,927.72
2022-09-30T01:11:12.963Z,927.78
2022-09-30T01:12:13.576Z,927.8
2022-09-30T01:13:14.517Z,927.79
2022-09-30T01:14:15.435Z,927.84
2022-09-30T01:15:15.929Z,927.87
2022-09-30T01:16:16.181Z,927.87
2022-09-30T01:17:17.210Z,927.92
2022-09-30T01:18:18.109Z,927.89
2022-09-30T01:19:18.758Z,927.89
2022-09-30T01:20:19.403Z,927.9
2022-09-30T01:21:20.116Z,927.84
2022-09-30T01:22:21.055Z,927.86
2022-09-30T01:23:21.676Z,927.85
2022-09-30T01:24:22.290Z,927.85
2022-09-30T01:25:23.233Z,927.92
2022-09-30T01:26:24.116Z,927.91
2022-09-30T01:27:24.693Z,927.93
2022-09-30T01:28:25.323Z,927.98
2022-09-30T01:29:25.951Z,927.99
2022-09-30T01:30:26.842Z,927.94
2022-09-30T01:31:27.974Z,927.92
2022-09-30T01:32:28.592Z,927.92
2022-09-30T01:33:28.930Z,927.99
2022-09-30T01:34:29.824Z,928.01
2022-09-30T01:35:30.766Z,927.97
2022-09-30T01:36:31.659Z,928
2022-09-30T01:37:31.897Z,928.03
2022-09-30T01:38:32.105Z,927.98
2022-09-30T01:39:32.740Z,927.97
2022-09-30T01:40:32.955Z,927.98
2022-09-30T01:41:33.503Z,928.04
2022-09-30T01:42:33.826Z,928.01
2022-09-30T01:43:34.012Z,928.03
2022-09-30T01:44:34.626Z,928.03
2022-09-30T01:45:35.535Z,928.04
2022-09-30T01:46:36.209Z,928.01
2022-09-30T01:47:36.854Z,928.03
2022-09-30T01:48:37.475Z,928.02
2022-09-30T01:49:38.359Z,928.04
2022-09-30T01:50:38.543Z,927.99
2022-09-30T01:51:39.548Z,928.09
2022-09-30T01:52:40.208Z,928.09
2022-09-30T01:53:40.407Z,928.09
2022-09-30T01:54:41.297Z,928.12
2022-09-30T01:55:42.231Z,928.1
2022-09-30T01:56:43.136Z,928.11
2022-09-30T01:57:43.360Z,928.12
2022-09-30T01:58:43.551Z,928.12
2022-09-30T01:59:44.461Z,928.14
2022-09-30T02:00:45.398Z,928.12
2022-09-30T02:01:46.422Z,928.16
2022-09-30T02:02:46.617Z,928.16
2022-09-30T02:03:47.531Z,928.14
2022-09-30T02:04:48.441Z,928.16
2022-09-30T02:05:48.757Z,928.18
2022-09-30T02:06:49.073Z,928.17
2022-09-30T02:07:50.005Z,928.18
2022-09-30T02:08:50.938Z,928.16
2022-09-30T02:09:51.453Z,928.09
2022-09-30T02:10:52.383Z,928.1
2022-09-30T02:11:53.354Z,928.05
2022-09-30T02:12:54.270Z,928.07
2022-09-30T02:13:55.159Z,928.03
2022-09-30T02:14:55.871Z,928.03
2022-09-30T02:15:56.551Z,928
2022-09-30T02:16:56.655Z,927.97
2022-09-30T02:17:57.553Z,927.96
2022-09-30T02:18:57.864Z,927.93
2022-09-30T02:19:58.758Z,927.95
2022-09-30T02:20:59.380Z,927.94
2022-09-30T02:21:59.785Z,927.94
2022-09-30T02:23:00.015Z,927.95
2022-09-30T02:24:00.216Z,927.95
2022-09-30T02:25:01.154Z,927.97
2022-09-30T02:26:02.115Z,927.93
2022-09-30T02:27:02.313Z,927.92
2022-09-30T02:28:02.512Z,927.91
2022-09-30T02:29:02.716Z,927.93
2022-09-30T02:30:03.373Z,927.89
2022-09-30T02:31:04.347Z,927.89
2022-09-30T02:32:05.319Z,927.89
2022-09-30T02:33:06.229Z,927.89
2022-09-30T02:34:06.848Z,927.89
2022-09-30T02:35:07.767Z,927.89
2022-09-30T02:36:08.583Z,927.91
2022-09-30T02:37:09.489Z,927.93
2022-09-30T02:38:09.834Z,927.95
2022-09-30T02:39:10.464Z,927.96
2022-09-30T02:40:11.546Z,927.96
2022-09-30T02:41:12.204Z,927.95
2022-09-30T02:42:12.602Z,928.01
2022-09-30T02:43:13.516Z,928.03
2022-09-30T02:44:14.129Z,928.06
2022-09-30T02:45:15.143Z,928.11
2022-09-30T02:46:15.512Z,928.13
2022-09-30T02:47:15.673Z,928.14
2022-09-30T02:48:16.019Z,928.15
2022-09-30T02:49:16.330Z,928.14
2022-09-30T02:50:16.436Z,928.17
2022-09-30T02:51:17.044Z,928.18
2022-09-30T02:52:17.770Z,928.16
2022-09-30T02:53:17.986Z,928.17
2022-09-30T02:54:18.315Z,928.18
2022-09-30T02:55:18.523Z,928.19
2022-09-30T02:56:18.759Z,928.25
2022-09-30T02:57:18.953Z,928.26
2022-09-30T02:58:19.451Z,928.27
2022-09-30T02:59:20.103Z,928.3
2022-09-30T03:00:20.480Z,928.31
2022-09-30T03:01:21.296Z,928.29
2022-09-30T03:02:21.498Z,928.35
2022-09-30T03:03:22.419Z,928.35
2022-09-30T03:04:22.602Z,928.38
2022-09-30T03:05:22.809Z,928.42
2022-09-30T03:06:23.138Z,928.41
2022-09-30T03:07:24.028Z,928.44
2022-09-30T03:08:24.983Z,928.47
2022-09-30T03:09:25.301Z,928.47
2022-09-30T03:10:25.562Z,928.48
2022-09-30T03:11:25.774Z,928.49
2022-09-30T03:12:26.047Z,928.48
2022-09-30T03:13:27.037Z,928.53
2022-09-30T03:14:27.369Z,928.52
2022-09-30T03:15:28.281Z,928.55
2022-09-30T03:16:28.902Z,928.53
2022-09-30T03:17:29.030Z,928.52
2022-09-30T03:18:29.658Z,928.5
2022-09-30T03:19:30.269Z,928.53
2022-09-30T03:20:30.903Z,928.5
2022-09-30T03:21:31.817Z,928.51
2022-09-30T03:22:32.099Z,928.51
2022-09-30T03:23:32.372Z,928.51
2022-09-30T03:24:32.573Z,928.45
2022-09-30T03:25:33.059Z,928.51
2022-09-30T03:26:33.690Z,928.48
2022-09-30T03:27:33.892Z,928.49
2022-09-30T03:28:34.814Z,928.51
2022-09-30T03:29:35.422Z,928.52
2022-09-30T03:30:35.604Z,928.47
2022-09-30T03:31:36.557Z,928.49
2022-09-30T03:32:36.625Z,928.52
2022-09-30T03:33:36.816Z,928.54
2022-09-30T03:34:37.002Z,928.51
2022-09-30T03:35:37.921Z,928.56
2022-09-30T03:36:38.548Z,928.54
2022-09-30T03:37:39.458Z,928.59
2022-09-30T03:38:39.696Z,928.57
2022-09-30T03:39:40.601Z,928.58
2022-09-30T03:40:41.491Z,928.61
2022-09-30T03:41:42.129Z,928.61
2022-09-30T03:42:42.547Z,928.55
2022-09-30T03:43:42.763Z,928.62
2022-09-30T03:44:43.354Z,928.63
2022-09-30T03:45:43.539Z,928.61
2022-09-30T03:46:44.516Z,928.64
2022-09-30T03:47:45.481Z,928.68
2022-09-30T03:48:46.415Z,928.64
2022-09-30T03:49:46.750Z,928.66
2022-09-30T03:50:47.076Z,928.68
2022-09-30T03:51:49.831Z,928.66
2022-09-30T03:52:48.298Z,928.68
2022-09-30T03:53:48.507Z,928.71
2022-09-30T03:54:48.828Z,928.73
2022-09-30T03:55:49.737Z,928.74
2022-09-30T03:56:50.369Z,928.8
2022-09-30T03:57:50.992Z,928.78
2022-09-30T03:58:51.611Z,928.79
2022-09-30T03:59:51.794Z,928.8
2022-09-30T04:00:52.449Z,928.8
2022-09-30T04:01:53.342Z,928.81
2022-09-30T04:02:57.723Z,928.8
2022-09-30T04:03:54.546Z,928.79
2022-09-30T04:04:55.178Z,928.81
2022-09-30T04:05:55.666Z,928.8
2022-09-30T04:06:56.301Z,928.78
2022-09-30T04:07:57.229Z,928.81
2022-09-30T04:08:57.518Z,928.81
2022-09-30T04:09:58.122Z,928.8
2022-09-30T04:10:58.733Z,928.83
2022-09-30T04:11:58.968Z,928.84
2022-09-30T04:12:59.980Z,928.8
2022-09-30T04:14:00.205Z,928.81
2022-09-30T04:15:00.420Z,928.82
2022-09-30T04:16:01.062Z,928.84
2022-09-30T04:17:01.597Z,928.81
2022-09-30T04:18:02.491Z,928.88
2022-09-30T04:19:03.121Z,928.85
2022-09-30T04:20:03.396Z,928.83
2022-09-30T04:21:03.607Z,928.89
2022-09-30T04:22:04.506Z,928.87
2022-09-30T04:23:05.271Z,928.88
2022-09-30T04:24:05.487Z,928.9
2022-09-30T04:25:06.407Z,928.89
2022-09-30T04:26:06.725Z,928.91
2022-09-30T04:27:07.648Z,928.93
2022-09-30T04:28:07.848Z,928.95
2022-09-30T04:29:08.479Z,928.92
2022-09-30T04:30:08.864Z,928.97
2022-09-30T04:31:09.309Z,928.95
2022-09-30T04:32:09.433Z,928.95
2022-09-30T04:33:10.338Z,928.94
2022-09-30T04:34:10.964Z,928.93
2022-09-30T04:35:11.598Z,928.92
2022-09-30T04:36:12.503Z,928.96
2022-09-30T04:37:12.699Z,928.96
2022-09-30T04:38:13.319Z,928.96
2022-09-30T04:39:13.839Z,928.95
2022-09-30T04:40:14.060Z,928.95
2022-09-30T04:41:14.988Z,928.96
2022-09-30T04:42:15.924Z,928.99
2022-09-30T04:43:16.474Z,928.99
2022-09-30T04:44:16.792Z,928.96
2022-09-30T04:45:17.707Z,928.98
2022-09-30T04:46:18.663Z,928.94
2022-09-30T04:47:19.569Z,928.96
2022-09-30T04:48:20.182Z,928.95
2022-09-30T04:49:20.944Z,928.97
2022-09-30T04:50:21.544Z,928.97
2022-09-30T04:51:21.745Z,928.97
2022-09-30T04:52:22.355Z,928.98
2022-09-30T04:53:23.062Z,928.98
2022-09-30T04:54:23.991Z,929
2022-09-30T04:55:24.338Z,929.03
2022-09-30T04:56:24.674Z,929.03
2022-09-30T04:57:25.336Z,929.06
2022-09-30T04:58:26.236Z,929.02
2022-09-30T04:59:27.302Z,929.09
2022-09-30T05:00:27.964Z,929.08
2022-09-30T05:01:28.508Z,929.12
2022-09-30T05:02:29.154Z,929.1
2022-09-30T05:03:29.871Z,929.13
2022-09-30T05:04:30.350Z,929.1
2022-09-30T05:05:30.536Z,929.12
2022-09-30T05:06:30.731Z,929.13
2022-09-30T05:07:31.642Z,929.17
2022-09-30T05:08:32.252Z,929.11
2022-09-30T05:09:33.271Z,929.12
2022-09-30T05:10:33.663Z,929.14
2022-09-30T05:11:34.557Z,929.12
2022-09-30T05:12:34.774Z,929.09
2022-09-30T05:13:34.911Z,929.11
2022-09-30T05:14:35.892Z,929.12
2022-09-30T05:15:36.225Z,929.15
2022-09-30T05:16:37.406Z,929.12
2022-09-30T05:17:37.798Z,929.11
2022-09-30T05:18:38.130Z,929.13
2022-09-30T05:19:39.037Z,929.16
2022-09-30T05:20:39.218Z,929.18
2022-09-30T05:21:39.401Z,929.16
2022-09-30T05:22:39.590Z,929.2
2022-09-30T05:23:39.975Z,929.22
2022-09-30T05:24:40.330Z,929.24
2022-09-30T05:25:40.914Z,929.25
2022-09-30T05:26:41.125Z,929.25
2022-09-30T05:27:41.639Z,929.27
2022-09-30T05:28:42.517Z,929.28
2022-09-30T05:29:43.060Z,929.28
2022-09-30T05:30:43.374Z,929.28
2022-09-30T05:31:43.552Z,929.27
2022-09-30T05:32:43.899Z,929.29
2022-09-30T05:33:44.947Z,929.33
2022-09-30T05:34:45.526Z,929.37
2022-09-30T05:35:46.244Z,929.34
2022-09-30T05:36:46.861Z,929.38
2022-09-30T05:37:47.067Z,929.39
2022-09-30T05:38:47.404Z,929.42
2022-09-30T05:39:47.911Z,929.45
2022-09-30T05:40:48.180Z,929.42
2022-09-30T05:41:49.068Z,929.44
2022-09-30T05:42:50.000Z,929.42
2022-09-30T05:43:50.411Z,929.42
2022-09-30T05:44:50.912Z,929.47
2022-09-30T05:45:51.403Z,929.46
2022-09-30T05:46:52.460Z,929.5
2022-09-30T05:47:52.690Z,929.48
2022-09-30T05:48:52.878Z,929.5
2022-09-30T05:49:56.080Z,929.53
2022-09-30T05:50:54.144Z,929.58
2022-09-30T05:51:55.054Z,929.56
2022-09-30T05:52:55.941Z,929.6
2022-09-30T05:53:56.350Z,929.59
2022-09-30T05:54:57.352Z,929.6
2022-09-30T05:55:58.000Z,929.62
2022-09-30T05:56:58.899Z,929.66
2022-09-30T05:57:59.415Z,929.7
2022-09-30T05:58:59.590Z,929.66
2022-09-30T06:00:00.526Z,929.69
2022-09-30T06:01:07.014Z,929.74
2022-09-30T06:02:02.338Z,929.74
2022-09-30T06:03:03.009Z,929.78
2022-09-30T06:04:03.155Z,929.82
2022-09-30T06:05:03.492Z,929.87
2022-09-30T06:06:04.111Z,929.87
2022-09-30T06:07:08.296Z,929.89
2022-09-30T06:08:05.429Z,929.93
2022-09-30T06:09:06.067Z,929.93
2022-09-30T06:10:06.952Z,929.95
2022-09-30T06:11:07.869Z,929.93
2022-09-30T06:12:08.061Z,929.93
2022-09-30T06:13:09.037Z,929.98
2022-09-30T06:14:09.372Z,930.01
2022-09-30T06:15:09.577Z,930.04
2022-09-30T06:16:10.287Z,930.09
2022-09-30T06:17:10.549Z,930.11
2022-09-30T06:18:13.672Z,930.11
2022-09-30T06:19:11.676Z,930.15
2022-09-30T06:20:12.553Z,930.16
2022-09-30T06:21:13.138Z,930.16
2022-09-30T06:22:13.459Z,930.22
2022-09-30T06:23:14.079Z,930.2
2022-09-30T06:24:15.073Z,930.24
2022-09-30T06:25:15.998Z,930.2
2022-09-30T06:26:16.337Z,930.23
2022-09-30T06:27:17.265Z,930.18
2022-09-30T06:28:18.208Z,930.2
2022-09-30T06:29:19.116Z,930.18
2022-09-30T06:30:19.484Z,930.19
2022-09-30T06:31:20.185Z,930.17
2022-09-30T06:32:21.179Z,930.17
2022-09-30T06:33:22.099Z,930.2
2022-09-30T06:34:22.380Z,930.21
2022-09-30T06:35:22.868Z,930.17
2022-09-30T06:36:23.358Z,930.18
2022-09-30T06:37:23.554Z,930.2
2022-09-30T06:38:24.468Z,930.19
2022-09-30T06:39:25.374Z,930.19
2022-09-30T06:40:26.475Z,930.2
2022-09-30T06:41:27.424Z,930.23
2022-09-30T06:42:27.911Z,930.26
2022-09-30T06:43:28.121Z,930.29
2022-09-30T06:44:54.139Z,930.26
2022-09-30T06:46:05.666Z,930.27
2022-09-30T06:46:55.796Z,930.29
2022-09-30T06:48:00.302Z,930.28
2022-09-30T06:49:06.420Z,930.32
2022-09-30T06:49:58.045Z,930.32
2022-09-30T06:51:01.678Z,930.31
2022-09-30T06:51:59.285Z,930.32
2022-09-30T06:52:59.926Z,930.36
2022-09-30T06:54:00.264Z,930.34
2022-09-30T06:55:00.565Z,930.37
2022-09-30T06:56:00.815Z,930.42
2022-09-30T06:57:01.049Z,930.39
2022-09-30T06:58:02.133Z,930.39
2022-09-30T06:59:02.366Z,930.4
2022-09-30T07:00:02.649Z,930.36
2022-09-30T07:01:02.937Z,930.43
2022-09-30T07:02:03.914Z,930.41
2022-09-30T07:03:04.862Z,930.38
2022-09-30T07:04:05.784Z,930.38
2022-09-30T07:05:06.059Z,930.41
2022-09-30T07:06:06.973Z,930.38
2022-09-30T07:07:07.883Z,930.39
2022-09-30T07:08:08.094Z,930.36
2022-09-30T07:09:08.369Z,930.42
2022-09-30T07:10:09.085Z,930.43
2022-09-30T07:11:09.370Z,930.45
2022-09-30T07:12:09.600Z,930.46
2022-09-30T07:13:10.496Z,930.47
2022-09-30T07:14:11.420Z,930.48
2022-09-30T07:15:13.805Z,930.48
2022-09-30T07:16:12.850Z,930.5
2022-09-30T07:17:13.382Z,930.5
2022-09-30T07:18:14.298Z,930.49
2022-09-30T07:19:14.913Z,930.46
2022-09-30T07:20:15.114Z,930.5
2022-09-30T07:21:15.533Z,930.46
2022-09-30T07:22:16.465Z,930.46
2022-09-30T07:23:17.404Z,930.47
2022-09-30T07:24:17.965Z,930.47
2022-09-30T07:25:18.529Z,930.47
2022-09-30T07:26:19.476Z,930.46
2022-09-30T07:27:20.003Z,930.45
2022-09-30T07:28:20.197Z,930.49
2022-09-30T07:29:21.202Z,930.46
2022-09-30T07:30:26.901Z,930.49
2022-09-30T07:31:36.824Z,930.49
2022-09-30T07:32:22.515Z,930.55
2022-09-30T07:33:22.868Z,930.56
2022-09-30T07:34:23.755Z,930.54
2022-09-30T07:35:24.479Z,930.56
2022-09-30T07:36:28.412Z,930.57
2022-09-30T07:37:25.757Z,930.57
2022-09-30T07:38:26.195Z,930.58
2022-09-30T07:39:26.859Z,930.59
2022-09-30T07:40:27.079Z,930.6
2022-09-30T07:41:27.313Z,930.62
2022-09-30T07:42:27.962Z,930.64
2022-09-30T07:43:28.875Z,930.62
2022-09-30T07:44:29.114Z,930.61
2022-09-30T07:45:29.685Z,930.57
2022-09-30T07:46:30.209Z,930.61
2022-09-30T07:47:30.433Z,930.57
2022-09-30T07:48:30.584Z,930.59
2022-09-30T07:49:30.799Z,930.59
2022-09-30T07:50:31.764Z,930.6
2022-09-30T07:51:32.381Z,930.59
2022-09-30T07:52:32.727Z,930.62
2022-09-30T07:53:32.944Z,930.6
2022-09-30T07:54:36.294Z,930.61
2022-09-30T07:55:34.776Z,930.59
2022-09-30T07:56:51.507Z,930.54
2022-09-30T07:57:35.936Z,930.58
2022-09-30T07:58:36.463Z,930.58
2022-09-30T07:59:36.979Z,930.57
2022-09-30T08:00:42.335Z,930.55
2022-09-30T08:01:38.908Z,930.53
2022-09-30T08:02:39.729Z,930.55
2022-09-30T08:03:39.868Z,930.56
2022-09-30T08:04:43.863Z,930.54
2022-09-30T08:05:41.129Z,930.62
2022-09-30T08:06:41.791Z,930.58
2022-09-30T08:07:42.434Z,930.61
2022-09-30T08:08:42.657Z,930.68
2022-09-30T08:09:43.703Z,930.76
2022-09-30T08:10:43.907Z,930.76
2022-09-30T08:11:44.839Z,930.78
2022-09-30T08:12:45.250Z,930.8
2022-09-30T08:13:45.548Z,930.82
2022-09-30T08:14:46.070Z,930.83
2022-09-30T08:15:46.661Z,930.83
2022-09-30T08:16:47.437Z,930.83
2022-09-30T08:17:47.926Z,930.79
2022-09-30T08:18:48.601Z,930.8
2022-09-30T08:19:48.825Z,930.82
2022-09-30T08:20:49.215Z,930.9
2022-09-30T08:21:49.540Z,930.86
2022-09-30T08:22:50.283Z,930.86
2022-09-30T08:23:51.211Z,930.85
2022-09-30T08:24:52.115Z,930.81
2022-09-30T08:25:53.110Z,930.85
2022-09-30T08:26:53.861Z,930.86
2022-09-30T08:27:54.374Z,930.85
2022-09-30T08:28:54.579Z,930.83
2022-09-30T08:29:57.516Z,930.86
2022-09-30T08:30:55.749Z,930.86
2022-09-30T08:31:56.767Z,930.83
2022-09-30T08:32:57.361Z,930.87
2022-09-30T08:33:57.562Z,930.89
2022-09-30T08:34:58.074Z,930.9
2022-09-30T08:35:58.298Z,930.91
2022-09-30T08:36:59.707Z,930.94
2022-09-30T08:37:58.934Z,930.96
2022-09-30T08:38:59.556Z,930.93
2022-09-30T08:40:00.496Z,930.88
2022-09-30T08:41:01.418Z,930.86
2022-09-30T08:42:13.829Z,930.85
2022-09-30T08:43:02.868Z,930.86
2022-09-30T08:44:03.502Z,930.88
2022-09-30T08:45:03.757Z,930.87
2022-09-30T08:46:04.176Z,930.94
2022-09-30T08:47:04.426Z,930.96
2022-09-30T08:48:05.091Z,930.99
2022-09-30T08:49:05.287Z,931.07
2022-09-30T08:50:05.986Z,931.1
2022-09-30T08:51:06.901Z,931.14
2022-09-30T08:52:08.319Z,931.14
2022-09-30T08:53:07.739Z,931.16
2022-09-30T08:54:08.657Z,931.18
2022-09-30T08:55:09.570Z,931.2
2022-09-30T08:56:10.186Z,931.23
2022-09-30T08:57:10.417Z,931.22
2022-09-30T08:58:11.042Z,931.29
2022-09-30T08:59:11.246Z,931.31
2022-09-30T09:00:12.065Z,931.34
2022-09-30T09:01:12.309Z,931.34
2022-09-30T09:02:16.550Z,931.32
2022-09-30T09:03:13.744Z,931.32
2022-09-30T09:04:14.343Z,931.3
2022-09-30T09:05:14.571Z,931.27
2022-09-30T09:06:15.316Z,931.25
2022-09-30T09:07:16.230Z,931.28
2022-09-30T09:08:16.853Z,931.21
2022-09-30T09:09:17.511Z,931.2
2022-09-30T09:10:17.711Z,931.19
2022-09-30T09:11:18.633Z,931.2
2022-09-30T09:12:19.098Z,931.22
2022-09-30T09:13:20.011Z,931.23
2022-09-30T09:14:20.952Z,931.29
2022-09-30T09:15:21.923Z,931.31
2022-09-30T09:16:22.359Z,931.33
2022-09-30T09:17:23.420Z,931.4
2022-09-30T09:18:24.788Z,931.42
2022-09-30T09:19:24.012Z,931.41
2022-09-30T09:20:24.274Z,931.44
2022-09-30T09:21:25.225Z,931.37
2022-09-30T09:22:26.189Z,931.37
2022-09-30T09:23:26.880Z,931.37
2022-09-30T09:24:27.109Z,931.35
2022-09-30T09:25:28.026Z,931.35
2022-09-30T09:26:28.304Z,931.38
2022-09-30T09:28:30.300Z,931.44
2022-09-30T09:29:30.983Z,931.52
2022-09-30T09:30:31.557Z,931.49
2022-09-30T09:31:31.844Z,931.5
2022-09-30T09:32:32.311Z,931.53
2022-09-30T09:33:33.228Z,931.54
2022-09-30T09:34:36.962Z,931.51
2022-09-30T09:35:35.214Z,931.52
2022-09-30T09:36:36.227Z,931.54
2022-09-30T09:37:36.423Z,931.52
2022-09-30T09:38:37.337Z,931.51
2022-09-30T09:39:37.953Z,931.53
2022-09-30T09:40:38.600Z,931.58
2022-09-30T09:41:38.818Z,931.58
2022-09-30T09:43:39.944Z,931.57
2022-09-30T09:44:40.612Z,931.6
2022-09-30T09:45:41.290Z,931.59
2022-09-30T09:46:41.587Z,931.61
2022-09-30T09:47:41.793Z,931.56
2022-09-30T09:48:42.718Z,931.58
2022-09-30T09:49:43.347Z,931.58
2022-09-30T09:50:43.655Z,931.6
2022-09-30T09:51:43.845Z,931.65
2022-09-30T09:52:44.759Z,931.62
2022-09-30T09:53:44.976Z,931.65
2022-09-30T09:54:45.895Z,931.7
2022-09-30T09:55:46.831Z,931.73
2022-09-30T09:56:47.390Z,931.74
2022-09-30T09:57:47.918Z,931.71
2022-09-30T09:58:48.096Z,931.71
2022-09-30T09:59:48.598Z,931.7
2022-09-30T10:00:48.840Z,931.7
2022-09-30T10:01:49.489Z,931.71
2022-09-30T10:02:49.797Z,931.71
2022-09-30T10:03:50.429Z,931.71
2022-09-30T10:04:51.038Z,931.72
2022-09-30T10:05:51.256Z,931.76
2022-09-30T10:06:52.346Z,931.72
2022-09-30T10:07:52.985Z,931.76
2022-09-30T10:08:53.886Z,931.73
2022-09-30T10:09:54.379Z,931.75
2022-09-30T10:10:54.875Z,931.74
2022-09-30T10:11:55.090Z,931.76
2022-09-30T10:12:55.315Z,931.77
2022-09-30T10:13:56.221Z,931.75
2022-09-30T10:14:57.137Z,931.73
2022-09-30T10:15:58.128Z,931.73
2022-09-30T10:16:58.641Z,931.69
2022-09-30T10:17:59.651Z,931.73
2022-09-30T10:18:59.853Z,931.72
2022-09-30T10:20:00.078Z,931.76
2022-09-30T10:21:00.991Z,931.73
2022-09-30T10:22:01.192Z,931.76
2022-09-30T10:23:01.791Z,931.76
2022-09-30T10:24:01.989Z,931.78
2022-09-30T10:25:02.966Z,931.76
2022-09-30T10:26:03.883Z,931.76
2022-09-30T10:27:04.018Z,931.76
2022-09-30T10:28:05.045Z,931.77
2022-09-30T10:29:05.666Z,931.78
2022-09-30T10:30:06.318Z,931.81
2022-09-30T10:31:06.594Z,931.81
2022-09-30T10:32:07.165Z,931.81
2022-09-30T10:33:07.413Z,931.83
2022-09-30T10:34:08.041Z,931.83
2022-09-30T10:35:08.935Z,931.84
2022-09-30T10:36:09.256Z,931.86
2022-09-30T10:37:09.990Z,931.88
2022-09-30T10:38:10.182Z,931.89
2022-09-30T10:39:11.186Z,931.87
2022-09-30T10:40:11.835Z,931.91
2022-09-30T10:41:12.749Z,931.92
2022-09-30T10:42:13.415Z,931.88
2022-09-30T10:43:14.220Z,931.91
2022-09-30T10:44:14.416Z,931.92
2022-09-30T10:45:14.642Z,931.91
2022-09-30T10:46:25.619Z,931.93
2022-09-30T10:47:15.026Z,931.92
2022-09-30T10:48:15.634Z,931.96
2022-09-30T10:49:16.129Z,931.95
2022-09-30T10:50:16.398Z,931.98
2022-09-30T10:51:16.747Z,931.95
2022-09-30T10:52:17.258Z,931.93
2022-09-30T10:53:18.192Z,931.94
2022-09-30T10:54:18.409Z,931.93
2022-09-30T10:55:18.821Z,931.89
2022-09-30T10:56:18.790Z,931.9
2022-09-30T10:57:19.052Z,931.8
2022-09-30T10:58:19.246Z,931.83
2022-09-30T10:59:20.196Z,931.85
2022-09-30T11:00:21.118Z,931.82
2022-09-30T11:01:21.871Z,931.86
2022-09-30T11:03:23.023Z,931.94
2022-09-30T11:04:23.771Z,931.91
2022-09-30T11:05:24.688Z,931.96
2022-09-30T11:06:25.258Z,931.95
2022-09-30T11:07:25.394Z,931.97
2022-09-30T11:08:26.041Z,931.94
2022-09-30T11:09:26.955Z,932
2022-09-30T11:10:27.995Z,932
2022-09-30T11:11:28.696Z,932.05
2022-09-30T11:12:29.587Z,932.05
2022-09-30T11:13:30.075Z,932.05
2022-09-30T11:14:31.015Z,932.15
2022-09-30T11:15:31.208Z,932.14
2022-09-30T11:16:31.688Z,932.2
2022-09-30T11:17:31.885Z,932.18
2022-09-30T11:18:32.411Z,932.15
2022-09-30T11:19:33.328Z,932.15
2022-09-30T11:20:33.526Z,932.14
2022-09-30T11:21:33.751Z,932.13
2022-09-30T11:22:33.954Z,932.14
2022-09-30T11:23:34.153Z,932.14
2022-09-30T11:24:34.377Z,932.25
2022-09-30T11:25:34.602Z,932.3
2022-09-30T11:26:35.522Z,932.3
2022-09-30T11:27:35.930Z,932.33
2022-09-30T11:28:36.049Z,932.33
2022-09-30T11:29:36.276Z,932.32
2022-09-30T11:30:36.900Z,932.33
2022-09-30T11:31:37.585Z,932.35
2022-09-30T11:32:38.162Z,932.38
2022-09-30T11:33:39.153Z,932.36
2022-09-30T11:34:40.069Z,932.34
2022-09-30T11:35:40.301Z,932.36
2022-09-30T11:36:42.948Z,932.33
2022-09-30T11:37:41.842Z,932.29
2022-09-30T11:38:42.080Z,932.33
2022-09-30T11:39:42.305Z,932.32
2022-09-30T11:40:42.504Z,932.3
2022-09-30T11:41:43.427Z,932.31
2022-09-30T11:42:43.648Z,932.27
2022-09-30T11:43:44.274Z,932.29
2022-09-30T11:44:45.264Z,932.26
2022-09-30T11:45:46.008Z,932.33
2022-09-30T11:46:46.695Z,932.3
2022-09-30T11:47:47.693Z,932.3
2022-09-30T11:48:48.629Z,932.28
2022-09-30T11:49:49.263Z,932.29
2022-09-30T11:50:49.756Z,932.29
2022-09-30T11:51:50.698Z,932.27
2022-09-30T11:52:50.909Z,932.28
2022-09-30T11:53:51.825Z,932.31
2022-09-30T11:54:52.047Z,932.28
2022-09-30T11:55:52.969Z,932.32
2022-09-30T11:56:53.596Z,932.31
2022-09-30T11:57:54.606Z,932.33
2022-09-30T11:58:55.302Z,932.36
2022-09-30T11:59:55.532Z,932.35
2022-09-30T12:00:55.914Z,932.39
2022-09-30T12:01:56.987Z,932.37
2022-09-30T12:02:57.547Z,932.36
2022-09-30T12:03:58.288Z,932.34
2022-09-30T12:04:58.938Z,932.3
2022-09-30T12:05:59.631Z,932.29
2022-09-30T12:06:59.839Z,932.33
2022-09-30T12:08:00.549Z,932.32
2022-09-30T12:09:01.174Z,932.37
2022-09-30T12:10:02.146Z,932.38
2022-09-30T12:11:02.490Z,932.39
2022-09-30T12:12:02.984Z,932.43
2022-09-30T12:13:03.152Z,932.42
2022-09-30T12:14:03.774Z,932.43
2022-09-30T12:15:04.282Z,932.41
2022-09-30T12:16:04.978Z,932.36
2022-09-30T12:17:05.889Z,932.37
2022-09-30T12:18:06.185Z,932.34
2022-09-30T12:19:06.691Z,932.31
2022-09-30T12:20:07.100Z,932.3
2022-09-30T12:21:07.314Z,932.31
2022-09-30T12:22:07.957Z,932.32
2022-09-30T12:23:08.869Z,932.35
2022-09-30T12:24:09.068Z,932.4
2022-09-30T12:25:09.268Z,932.41
2022-09-30T12:26:10.208Z,932.44
2022-09-30T12:27:11.062Z,932.44
2022-09-30T12:28:11.893Z,932.53
2022-09-30T12:29:12.423Z,932.49
2022-09-30T12:30:13.070Z,932.5
2022-09-30T12:31:13.296Z,932.47
2022-09-30T12:32:13.630Z,932.46
2022-09-30T12:33:14.521Z,932.48
2022-09-30T12:34:14.754Z,932.45
2022-09-30T12:35:15.414Z,932.44
2022-09-30T12:36:16.038Z,932.46
2022-09-30T12:37:16.465Z,932.42
2022-09-30T12:38:17.085Z,932.45
2022-09-30T12:39:17.301Z,932.44
2022-09-30T12:40:17.939Z,932.43
2022-09-30T12:41:18.138Z,932.4
2022-09-30T12:42:18.336Z,932.4